createdAt,value
2023-01-11T00:50:17.090Z,75.10
2023-01-11T02:05:28.364Z,83.60
2023-01-11T02:07:58.893Z,84.30
2023-01-11T02:10:29.035Z,84.80
2023-01-11T02:13:01.585Z,85.20
2023-01-11T02:15:30.939Z,85.30
2023-01-11T02:18:00.422Z,84.80
2023-01-11T02:20:38.075Z,85.70
2023-01-11T02:34:06.153Z,86.10
2023-01-11T02:36:46.819Z,86.70
2023-01-11T02:39:22.462Z,87.40
2023-01-11T02:55:19.620Z,86.30
2023-01-11T03:03:07.407Z,87.60
2023-01-11T03:05:39.134Z,90.60
2023-01-11T03:16:19.707Z,88.10
2023-01-11T03:21:28.716Z,90.50
2023-01-11T03:24:10.574Z,90.30
2023-01-11T03:26:50.880Z,90.60
2023-01-11T03:29:28.138Z,90.30
2023-01-11T03:32:07.670Z,90.10
2023-01-11T03:34:40.324Z,90.60
2023-01-11T03:37:13.272Z,90.00
2023-01-11T03:39:46.805Z,90.00
2023-01-11T03:42:20.575Z,89.50
2023-01-11T03:44:54.177Z,89.30
2023-01-11T03:47:26.191Z,89.40
2023-01-11T03:49:57.275Z,89.30
2023-01-11T03:52:30.532Z,88.80
2023-01-11T03:55:00.831Z,88.50
2023-01-11T03:57:33.110Z,88.10
2023-01-11T04:00:01.581Z,87.60
2023-01-11T04:02:36.765Z,87.40
2023-01-11T04:05:06.181Z,87.20
2023-01-11T04:07:34.351Z,87.20
2023-01-11T04:10:02.779Z,86.90
2023-01-11T04:12:30.993Z,88.20
2023-01-11T04:14:59.195Z,87.50
2023-01-11T04:17:27.370Z,87.70
2023-01-11T04:19:56.875Z,87.90
2023-01-11T04:22:24.953Z,88.00
2023-01-11T04:24:53.197Z,88.00
2023-01-11T04:27:21.363Z,88.40
2023-01-11T04:29:51.618Z,88.00
2023-01-11T04:32:19.744Z,89.10
2023-01-11T04:34:47.859Z,89.40
2023-01-11T04:37:17.371Z,89.20
2023-01-11T04:39:45.549Z,89.30
2023-01-11T04:42:19.641Z,89.70
2023-01-11T04:44:48.916Z,86.90
2023-01-11T04:47:17.603Z,90.60
2023-01-11T04:49:46.497Z,90.60
2023-01-11T04:52:18.145Z,90.40
2023-01-11T04:54:47.280Z,90.60
2023-01-11T04:57:17.717Z,90.50
2023-01-11T04:59:46.800Z,90.40
2023-01-11T05:02:15.091Z,90.90
2023-01-11T05:04:43.304Z,90.90
2023-01-11T06:06:59.107Z,92.80
2023-01-11T08:12:33.542Z,88.40
2023-01-11T08:15:01.751Z,84.60
2023-01-11T08:19:59.784Z,87.30
2023-01-11T08:22:27.930Z,88.50
2023-01-11T09:14:43.970Z,82.10
2023-01-11T09:17:12.155Z,83.80
2023-01-11T09:24:39.789Z,83.70
2023-01-11T09:39:37.165Z,79.00
2023-01-11T09:49:56.119Z,78.50
2023-01-11T10:18:23.623Z,82.30
2023-01-11T10:22:23.406Z,78.20
2023-01-11T10:24:59.694Z,81.50
2023-01-11T11:07:18.991Z,82.40
2023-01-11T11:29:58.215Z,88.20
2023-01-11T11:34:57.446Z,87.70
2023-01-11T11:39:57.834Z,88.80
2023-01-11T11:47:36.500Z,88.50
2023-01-11T11:50:43.108Z,89.30
2023-01-11T11:55:47.712Z,90.10
2023-01-11T12:03:21.704Z,90.10
2023-01-11T12:05:52.422Z,90.20
2023-01-11T12:08:21.675Z,90.10
2023-01-11T12:10:53.537Z,88.30
2023-01-11T12:18:32.902Z,90.70
2023-01-11T12:21:20.275Z,90.90
2023-01-11T12:26:27.498Z,90.90
2023-01-11T12:34:23.681Z,91.40
2023-01-11T12:42:22.078Z,90.70
2023-01-11T12:45:04.498Z,92.60
2023-01-11T13:01:06.771Z,93.50
2023-01-11T13:09:03.197Z,96.10
2023-01-11T13:11:45.712Z,96.20
2023-01-11T13:22:12.714Z,96.70
2023-01-11T13:24:42.640Z,97.40
2023-01-11T13:29:48.558Z,95.80
2023-01-11T13:32:22.245Z,97.40
2023-01-11T13:39:58.626Z,96.60
2023-01-11T13:55:20.940Z,97.00
2023-01-11T14:34:42.045Z,99.90
2023-01-11T15:22:05.841Z,98.20
2023-01-11T17:49:57.264Z,99.70
2023-01-11T17:52:27.464Z,99.70
2023-01-11T18:07:52.323Z,99.20
2023-01-11T18:25:48.606Z,95.00
2023-01-11T18:31:08.547Z,96.10
2023-01-11T18:33:40.571Z,95.70
2023-01-11T18:36:21.091Z,95.90
2023-01-11T18:38:49.238Z,95.90
2023-01-11T18:41:35.929Z,95.50
2023-01-11T18:44:04.893Z,94.00
2023-01-11T18:46:34.572Z,95.70
2023-01-11T18:51:34.963Z,95.30
2023-01-11T18:54:03.137Z,95.40
2023-01-11T18:56:31.306Z,95.20
2023-01-11T19:04:02.791Z,94.70
2023-01-11T19:11:29.064Z,95.40
2023-01-11T19:13:57.302Z,95.00
2023-01-11T19:34:29.889Z,94.00
2023-01-11T19:42:10.349Z,92.70
2023-01-11T19:44:39.745Z,94.50
2023-01-11T19:47:11.903Z,95.30
2023-01-11T19:49:40.745Z,95.80
2023-01-11T19:52:12.543Z,95.70
2023-01-11T19:54:43.422Z,95.90
2023-01-11T19:57:12.229Z,96.30
2023-01-11T19:59:40.221Z,96.50
2023-01-11T20:04:39.828Z,95.50
2023-01-11T20:07:08.247Z,96.90
2023-01-11T20:09:37.706Z,96.90
2023-01-11T20:12:07.854Z,97.10
2023-01-11T20:14:36.460Z,97.80
2023-01-11T20:17:04.862Z,97.60
2023-01-11T20:19:32.887Z,97.20
2023-01-11T20:22:00.929Z,96.60
2023-01-11T20:24:29.903Z,97.00
2023-01-11T20:26:59.216Z,96.10
2023-01-11T20:29:29.018Z,96.50
2023-01-11T20:32:13.378Z,95.90
2023-01-11T20:34:41.631Z,95.60
2023-01-11T20:37:09.653Z,96.50
2023-01-11T20:39:37.618Z,96.90
2023-01-11T20:42:05.631Z,96.90
2023-01-11T20:44:34.967Z,98.00
2023-01-11T20:47:02.974Z,97.50
2023-01-11T20:49:31.223Z,97.20
2023-01-11T20:51:59.350Z,96.70
2023-01-11T20:57:01.155Z,97.00
2023-01-11T20:59:32.167Z,97.00
2023-01-11T21:02:01.541Z,96.70
2023-01-11T21:04:29.723Z,95.30
2023-01-11T21:06:57.696Z,94.90
2023-01-11T21:09:25.679Z,95.00
2023-01-11T21:11:54.155Z,95.10
2023-01-11T21:14:22.734Z,95.00
2023-01-11T21:16:50.779Z,94.80
2023-01-11T21:19:20.163Z,93.70
2023-01-11T21:21:49.715Z,93.50
2023-01-11T21:24:18.145Z,94.00
2023-01-11T21:26:47.958Z,94.50
2023-01-11T21:29:16.037Z,94.70
2023-01-11T21:31:44.131Z,93.60
2023-01-11T21:34:13.375Z,94.50
2023-01-11T21:39:28.014Z,93.40
2023-01-11T21:41:56.106Z,95.50
2023-01-11T21:44:27.630Z,95.20
2023-01-11T21:46:56.342Z,95.20
2023-01-11T21:49:24.690Z,95.30
2023-01-11T21:51:53.213Z,95.40
2023-01-11T21:54:21.687Z,95.60
2023-01-11T21:56:51.977Z,94.80
2023-01-11T21:59:20.368Z,95.00
2023-01-11T22:01:49.188Z,95.30
2023-01-11T22:04:19.296Z,94.90
2023-01-11T22:06:51.628Z,94.70
2023-01-11T22:09:20.459Z,94.00
2023-01-11T22:11:51.023Z,94.20
2023-01-11T22:14:20.145Z,94.40
2023-01-11T22:19:16.964Z,91.30
2023-01-11T22:21:45.099Z,93.40
2023-01-11T22:24:13.510Z,93.20
2023-01-11T22:26:41.866Z,93.40
2023-01-11T22:29:15.152Z,92.50
2023-01-11T22:31:46.642Z,90.90
2023-01-11T22:34:16.348Z,92.30
2023-01-11T22:36:45.293Z,92.10
2023-01-11T22:39:14.395Z,92.60
2023-01-11T22:41:42.459Z,93.50
2023-01-11T22:44:12.001Z,92.70
2023-01-11T22:46:40.056Z,92.40
2023-01-11T22:49:08.411Z,91.80
2023-01-11T22:51:36.725Z,92.00
2023-01-11T22:54:06.354Z,92.10
2023-01-11T22:56:35.015Z,92.00
2023-01-11T22:59:03.335Z,91.70
2023-01-11T23:01:34.457Z,91.80
2023-01-11T23:04:03.242Z,92.00
2023-01-11T23:06:32.706Z,91.40
2023-01-11T23:09:01.557Z,91.60
2023-01-11T23:11:49.296Z,92.60
2023-01-11T23:14:18.875Z,92.20
2023-01-11T23:16:50.185Z,92.20
2023-01-11T23:19:20.042Z,92.20
2023-01-11T23:21:48.977Z,92.60
2023-01-11T23:24:17.967Z,92.50
2023-01-11T23:26:46.375Z,92.60
2023-01-11T23:29:14.653Z,92.50
2023-01-11T23:31:43.596Z,92.70
2023-01-11T23:34:13.777Z,93.10
2023-01-11T23:36:43.328Z,93.40
2023-01-11T23:39:14.710Z,93.50
2023-01-11T23:42:00.484Z,93.20
2023-01-11T23:44:28.623Z,91.80
2023-01-11T23:49:44.707Z,92.60
2023-01-11T23:52:12.936Z,94.60
2023-01-11T23:54:41.203Z,94.30
2023-01-11T23:57:09.327Z,94.10
2023-01-11T23:59:37.339Z,93.70
